お正月から満員御礼!!

LUXURY FLIGHT

080-7560-1817

羽田空港本店:東京都大田区羽田空港3-3-2
第1旅客ターミナル5階
営業時間:10:00~20:00 定休日:年中無休
電話番号:080-7560-1817

セントレア店:愛知県常滑市セントレア1-1
FLIGHT OF DREAMS FLIGHT PARK
営業時間:10:00~20:00 定休日:年中無休
電話番号:080-4945-5666

lv

お正月から満員御礼!!

STAFF BLOG

2020/01/02 お正月から満員御礼!!

中部よりこんばんは~~~!!

 

RJGG 020900Z 02009KT 9999 FEW025 SCT060 09/03 Q1022 NOSIG

 

2020年を迎え、皆さま、いかがお過ごしでしょうか

 

1月1日~3日、羽田本店はお休みをいただいておりますが、

こちらセントレア店は元気に営業

 

お正月にもかかわらず、大変多くの皆様にお越しくださり、

おかげさまで満員御礼

 

img_0311 img_2169 img_2170 img_2171 img_2172 img_2173 img_2175

img_1252

 

お正月からお越しくださり、本当ににありがとうございます!!

ご来店頂いたにも関わらず、お写真を掲載できなかったお客様、大変申し訳ございません

 

本年も皆さまの体験が、充実した、素敵な思い出となりますように、

スタッフ一同、全力でサポートさせて頂きます!!

 

どうぞよろしくお願いいたします!!

 

「感謝」

TOP